Time;durP1;ratioP1;P1;durP2;ratioP2;P2;SDS_P1;SDS_P2;PMS_P1;PMS_P2;Temp;Humidity;BMP_temperature;BMP_pressure;BME280_temperature;BME280_humidity;BME280_pressure;Samples;Min_cycle;Max_cycle;Signal;HPM_P1;HPM_P2
2021/09/07 00:01:43;;;;;;;1999.90;999.90;;;18.30;99.90;;;;;;5015266;28;20169;-84
2021/09/07 00:04:09;;;;;;;1999.90;999.90;;;18.30;99.90;;;;;;5015236;28;20228;-84
2021/09/07 00:06:34;;;;;;;1999.90;999.90;;;18.30;99.90;;;;;;5013693;28;20197;-85
2021/09/07 00:09:00;;;;;;;1999.90;999.90;;;18.20;99.90;;;;;;5015176;28;20170;-85
2021/09/07 00:11:26;;;;;;;1999.90;999.90;;;18.20;99.90;;;;;;5015279;28;20557;-85
2021/09/07 00:13:51;;;;;;;1999.90;999.90;;;18.20;99.90;;;;;;5013809;28;20166;-84
2021/09/07 00:16:17;;;;;;;1999.90;999.90;;;18.20;99.90;;;;;;5014497;28;20186;-85
2021/09/07 00:18:43;;;;;;;1999.90;999.90;;;18.20;99.90;;;;;;5013774;28;20588;-84
2021/09/07 00:21:08;;;;;;;1999.90;999.90;;;18.10;99.90;;;;;;5013797;28;20232;-84
2021/09/07 00:23:34;;;;;;;1999.90;999.90;;;18.20;99.90;;;;;;5014924;28;20166;-85
2021/09/07 00:26:00;;;;;;;1999.90;999.90;;;18.10;99.90;;;;;;5014739;28;20244;-85
2021/09/07 00:28:25;;;;;;;1999.90;999.90;;;18.10;99.90;;;;;;5015685;28;20173;-85
2021/09/07 00:30:51;;;;;;;1999.90;999.90;;;18.10;99.90;;;;;;5013412;28;20220;-84
2021/09/07 00:33:17;;;;;;;1999.90;999.90;;;18.00;99.90;;;;;;5014659;28;20166;-85
2021/09/07 00:35:42;;;;;;;1999.90;999.90;;;18.00;99.90;;;;;;5014338;28;20186;-85
2021/09/07 00:38:10;;;;;;;1999.90;999.90;;;18.00;99.90;;;;;;5014422;28;20163;-84
2021/09/07 00:40:38;;;;;;;1999.90;999.90;;;18.00;99.90;;;;;;5014256;28;20239;-84
2021/09/07 00:43:04;;;;;;;1999.90;999.90;;;18.00;99.90;;;;;;5013259;28;20413;-84
2021/09/07 00:45:30;;;;;;;1999.90;999.90;;;18.00;99.90;;;;;;5014300;28;20501;-84
2021/09/07 00:47:56;;;;;;;1999.90;999.90;;;18.00;99.90;;;;;;5014404;28;20170;-84
2021/09/07 00:50:23;;;;;;;1999.90;999.90;;;18.00;99.90;;;;;;5014238;28;20186;-84
2021/09/07 00:52:50;;;;;;;1999.90;999.90;;;18.00;99.90;;;;;;5014038;28;20500;-84
2021/09/07 00:55:16;;;;;;;1999.90;999.90;;;18.00;99.90;;;;;;5013137;28;20405;-84
2021/09/07 00:57:44;;;;;;;1999.90;999.90;;;18.00;99.90;;;;;;5014098;28;20475;-85
2021/09/07 01:00:10;;;;;;;1999.90;999.90;;;18.00;99.90;;;;;;5013373;28;20416;-84
2021/09/07 01:02:37;;;;;;;1999.90;999.90;;;18.00;99.90;;;;;;5012817;28;20441;-85
2021/09/07 01:05:03;;;;;;;1999.90;999.90;;;18.00;99.90;;;;;;5012754;28;20425;-84
2021/09/07 01:07:34;;;;;;;1999.90;999.90;;;17.90;99.90;;;;;;5014022;28;20429;-85
2021/09/07 01:10:03;;;;;;;1999.90;999.90;;;17.90;99.90;;;;;;5013222;28;20924;-84
2021/09/07 01:12:28;;;;;;;1999.90;999.90;;;18.00;99.90;;;;;;5013866;28;20401;-84
2021/09/07 01:14:54;;;;;;;1999.90;999.90;;;18.00;99.90;;;;;;5012746;28;20761;-85
2021/09/07 01:17:20;;;;;;;1999.90;999.90;;;18.00;99.90;;;;;;5013893;28;20181;-85
2021/09/07 01:19:48;;;;;;;1999.90;999.90;;;18.00;99.90;;;;;;5012823;28;20212;-85
2021/09/07 01:22:16;;;;;;;1999.90;999.90;;;18.00;99.90;;;;;;5013093;28;20840;-84
2021/09/07 01:24:42;;;;;;;1999.90;999.90;;;18.00;99.90;;;;;;5013031;28;20547;-85
2021/09/07 01:27:08;;;;;;;1999.90;999.90;;;18.00;99.90;;;;;;5013849;28;20424;-85
2021/09/07 01:29:35;;;;;;;1999.90;999.90;;;18.00;99.90;;;;;;5013141;28;20919;-85
2021/09/07 01:32:03;;;;;;;1999.90;999.90;;;18.00;99.90;;;;;;5012894;28;20444;-84
2021/09/07 01:34:29;;;;;;;1999.90;999.90;;;18.00;99.90;;;;;;5013760;28;20424;-85
2021/09/07 01:36:56;;;;;;;1999.90;999.90;;;18.00;99.90;;;;;;5013353;28;20437;-85
2021/09/07 01:39:22;;;;;;;1999.90;999.90;;;17.90;99.90;;;;;;5013764;28;20212;-84
2021/09/07 01:41:48;;;;;;;1999.90;999.90;;;17.90;99.90;;;;;;5013780;28;20773;-85
2021/09/07 01:44:14;;;;;;;1999.90;999.90;;;17.90;99.90;;;;;;5012479;28;20433;-84
2021/09/07 01:46:40;;;;;;;1999.90;999.90;;;17.90;99.90;;;;;;5013986;28;20425;-85
2021/09/07 01:49:09;;;;;;;1999.90;999.90;;;17.90;99.90;;;;;;5012491;28;20404;-85
2021/09/07 01:51:38;;;;;;;1999.90;999.90;;;17.90;99.90;;;;;;5012781;28;20696;-85
2021/09/07 01:54:05;;;;;;;1999.90;999.90;;;17.80;99.90;;;;;;5012940;28;20405;-85
2021/09/07 01:56:31;;;;;;;1999.90;999.90;;;17.80;99.90;;;;;;5012117;28;20425;-85
2021/09/07 01:58:57;;;;;;;1999.90;999.90;;;17.80;99.90;;;;;;5013451;28;20409;-85
2021/09/07 02:01:22;;;;;;;1999.90;999.90;;;17.70;99.90;;;;;;5012345;28;20781;-85
2021/09/07 02:03:48;;;;;;;1999.90;999.90;;;17.70;99.90;;;;;;5013318;28;20170;-85
2021/09/07 02:06:14;;;;;;;1999.90;999.90;;;17.70;99.90;;;;;;5012693;28;20201;-85
2021/09/07 02:08:39;;;;;;;1999.90;999.90;;;17.70;99.90;;;;;;5013739;28;20637;-85
2021/09/07 02:11:05;;;;;;;1999.90;999.90;;;17.70;99.90;;;;;;5013628;28;20271;-84
2021/09/07 02:13:30;;;;;;;1999.90;999.90;;;17.60;99.90;;;;;;5012153;28;20166;-85
2021/09/07 02:15:56;;;;;;;1999.90;999.90;;;17.60;99.90;;;;;;5013615;28;20178;-85
2021/09/07 02:18:22;;;;;;;1999.90;999.90;;;17.50;99.90;;;;;;5013309;28;20162;-85
2021/09/07 02:20:47;;;;;;;1999.90;999.90;;;17.50;99.90;;;;;;5013622;28;20629;-85
2021/09/07 02:23:13;;;;;;;1999.90;999.90;;;17.50;99.90;;;;;;5013367;28;20633;-85
2021/09/07 02:25:39;;;;;;;1999.90;999.90;;;17.50;99.90;;;;;;5013402;28;20174;-85
2021/09/07 02:28:04;;;;;;;1999.90;999.90;;;17.50;99.90;;;;;;5011961;28;20170;-85
2021/09/07 02:30:30;;;;;;;1999.90;999.90;;;17.50;99.90;;;;;;5013186;28;20240;-85
2021/09/07 02:32:59;;;;;;;1999.90;999.90;;;17.50;99.90;;;;;;5012279;28;20170;-85
2021/09/07 02:35:25;;;;;;;1999.90;999.90;;;17.40;99.90;;;;;;5012047;28;20482;-85
2021/09/07 02:37:51;;;;;;;1999.90;999.90;;;17.40;99.90;;;;;;5013201;28;20425;-85
2021/09/07 02:40:16;;;;;;;1999.90;999.90;;;17.40;99.90;;;;;;5016778;28;20488;-85
2021/09/07 02:42:42;;;;;;;1999.90;999.90;;;17.40;99.90;;;;;;5015362;28;20220;-85
2021/09/07 02:45:08;;;;;;;1999.90;999.90;;;17.30;99.90;;;;;;5016499;28;20162;-85
2021/09/07 02:47:40;;;;;;;1999.90;999.90;;;17.30;99.90;;;;;;5015030;28;20217;-85
2021/09/07 02:50:12;;;;;;;1999.90;999.90;;;17.30;99.90;;;;;;5015964;28;20967;-85
2021/09/07 02:52:38;;;;;;;1999.90;999.90;;;17.30;99.90;;;;;;5016616;28;20389;-85
2021/09/07 02:55:05;;;;;;;1999.90;999.90;;;17.30;99.90;;;;;;5014979;28;20952;-85
2021/09/07 02:57:31;;;;;;;1999.90;999.90;;;17.20;99.90;;;;;;5016627;28;20421;-85
2021/09/07 02:59:57;;;;;;;1999.90;999.90;;;17.20;99.90;;;;;;5015038;28;20769;-84
2021/09/07 03:02:23;;;;;;;1999.90;999.90;;;17.20;99.90;;;;;;5016111;28;20405;-84
2021/09/07 03:04:50;;;;;;;1999.90;999.90;;;17.20;99.90;;;;;;5016310;28;20251;-84
2021/09/07 03:07:16;;;;;;;1999.90;999.90;;;17.20;99.90;;;;;;5015377;28;20797;-85
2021/09/07 03:09:42;;;;;;;1999.90;999.90;;;17.20;99.90;;;;;;5016135;28;20405;-84
2021/09/07 03:12:08;;;;;;;1999.90;999.90;;;17.20;99.90;;;;;;5014618;28;20460;-85
2021/09/07 03:14:33;;;;;;;1999.90;999.90;;;17.10;99.90;;;;;;5014905;28;20580;-84
2021/09/07 03:16:59;;;;;;;1999.90;999.90;;;17.10;99.90;;;;;;5015816;28;20187;-85
2021/09/07 03:19:25;;;;;;;1999.90;999.90;;;17.10;99.90;;;;;;5016039;28;20162;-85
2021/09/07 03:21:50;;;;;;;1999.90;999.90;;;17.10;99.90;;;;;;5015870;28;20401;-84
2021/09/07 03:24:16;;;;;;;1999.90;999.90;;;17.10;99.90;;;;;;5015613;28;20174;-84
2021/09/07 03:26:42;;;;;;;1999.90;999.90;;;17.00;99.90;;;;;;5015521;28;20190;-85
2021/09/07 03:29:08;;;;;;;1999.90;999.90;;;17.00;99.90;;;;;;5015442;28;20405;-85
2021/09/07 03:31:34;;;;;;;1999.90;999.90;;;17.00;99.90;;;;;;5014349;28;20289;-85
2021/09/07 03:34:00;;;;;;;1999.90;999.90;;;17.00;99.90;;;;;;5014314;28;20477;-85
2021/09/07 03:36:26;;;;;;;1999.90;999.90;;;17.00;99.90;;;;;;5084599;23;20222;-87
2021/09/07 03:38:51;;;;;;;1999.90;999.90;;;16.90;99.90;;;;;;5015890;28;20772;-87
2021/09/07 03:41:17;;;;;;;1999.90;999.90;;;16.90;99.90;;;;;;5016241;28;20397;-87
2021/09/07 03:43:43;;;;;;;1999.90;999.90;;;16.90;99.90;;;;;;5016342;28;20180;-87
2021/09/07 03:46:08;;;;;;;1999.90;999.90;;;16.70;99.90;;;;;;5016053;28;20182;-87
2021/09/07 03:48:34;;;;;;;1999.90;999.90;;;16.80;99.90;;;;;;5014513;28;20224;-87
2021/09/07 03:51:00;;;;;;;1999.90;999.90;;;16.80;99.90;;;;;;5013800;28;20297;-87
2021/09/07 03:53:30;;;;;;;1999.90;999.90;;;16.80;99.90;;;;;;5016315;28;20162;-87
2021/09/07 03:55:56;;;;;;;1999.90;999.90;;;16.90;99.90;;;;;;5015444;28;20181;-87
2021/09/07 03:58:22;;;;;;;1999.90;999.90;;;16.90;99.90;;;;;;5015169;28;20500;-87
2021/09/07 04:00:48;;;;;;;1999.90;999.90;;;16.90;99.90;;;;;;5013805;28;20962;-87
2021/09/07 04:03:15;;;;;;;1999.90;999.90;;;16.80;99.90;;;;;;5015051;28;20186;-87
2021/09/07 04:05:42;;;;;;;1999.90;999.90;;;16.80;99.90;;;;;;5015028;28;20177;-87
2021/09/07 04:08:08;;;;;;;1999.90;999.90;;;16.80;99.90;;;;;;5015073;28;20408;-87
2021/09/07 04:10:33;;;;;;;1999.90;999.90;;;16.80;99.90;;;;;;5013743;28;20861;-88
2021/09/07 04:12:59;;;;;;;1999.90;999.90;;;16.80;99.90;;;;;;5014788;28;20447;-87
2021/09/07 04:15:25;;;;;;;1999.90;999.90;;;16.80;99.90;;;;;;5013876;28;20549;-87
2021/09/07 04:17:50;;;;;;;1999.90;999.90;;;16.80;99.90;;;;;;5013531;28;20197;-87
2021/09/07 04:20:16;;;;;;;1999.90;999.90;;;16.80;99.90;;;;;;5013675;28;20170;-87
2021/09/07 04:22:42;;;;;;;1999.90;999.90;;;16.70;99.90;;;;;;5014821;28;20664;-87
2021/09/07 04:25:08;;;;;;;1999.90;999.90;;;16.70;99.90;;;;;;5015144;28;20188;-87
2021/09/07 04:27:34;;;;;;;1999.90;999.90;;;16.70;99.90;;;;;;5015080;28;20277;-87
2021/09/07 04:29:59;;;;;;;1999.90;999.90;;;16.70;99.90;;;;;;5014947;28;20804;-87
2021/09/07 04:32:25;;;;;;;1999.90;999.90;;;16.70;99.90;;;;;;5013717;28;20252;-87
2021/09/07 04:34:51;;;;;;;1999.90;999.90;;;16.70;99.90;;;;;;5014763;28;20181;-87
2021/09/07 04:37:17;;;;;;;1999.90;999.90;;;16.70;99.90;;;;;;5013352;28;20432;-87
2021/09/07 04:39:47;;;;;;;1999.90;999.90;;;16.60;99.90;;;;;;5014547;28;20179;-87
2021/09/07 04:42:13;;;;;;;1999.90;999.90;;;16.60;99.90;;;;;;5014546;28;20211;-87
2021/09/07 04:44:38;;;;;;;1999.90;999.90;;;16.60;99.90;;;;;;5013345;28;20421;-87
2021/09/07 04:47:04;;;;;;;1999.90;999.90;;;16.60;99.90;;;;;;5014595;28;20196;-87
2021/09/07 04:49:30;;;;;;;1999.90;999.90;;;16.70;99.90;;;;;;5013424;28;20687;-87
2021/09/07 04:51:55;;;;;;;1999.90;999.90;;;16.70;99.90;;;;;;5014367;28;20197;-87
2021/09/07 04:54:21;;;;;;;1999.90;999.90;;;16.70;99.90;;;;;;5013221;28;20253;-87
2021/09/07 04:56:47;;;;;;;1999.90;999.90;;;16.70;99.90;;;;;;5014679;28;20194;-87
2021/09/07 04:59:12;;;;;;;1999.90;999.90;;;16.60;99.90;;;;;;5014281;28;20648;-87
2021/09/07 05:01:38;;;;;;;1999.90;999.90;;;16.60;99.90;;;;;;5013048;28;20185;-87
2021/09/07 05:04:04;;;;;;;1999.90;999.90;;;16.60;99.90;;;;;;5014209;28;20642;-87
2021/09/07 05:06:33;;;;;;;1999.90;999.90;;;16.60;99.90;;;;;;5012839;28;20451;-87
2021/09/07 05:08:58;;;;;;;1999.90;999.90;;;16.60;99.90;;;;;;5012727;28;20526;-87
2021/09/07 05:11:24;;;;;;;1999.90;999.90;;;16.60;99.90;;;;;;5014020;28;20479;-87
2021/09/07 05:13:50;;;;;;;1999.90;999.90;;;16.50;99.90;;;;;;5013960;28;20169;-87
2021/09/07 05:16:18;;;;;;;1999.90;999.90;;;16.50;99.90;;;;;;5014880;28;20176;-87
2021/09/07 05:18:44;;;;;;;1999.90;999.90;;;16.50;99.90;;;;;;5013097;28;20970;-87
2021/09/07 05:21:10;;;;;;;1999.90;999.90;;;16.40;99.90;;;;;;5013779;28;20412;-87
2021/09/07 05:23:37;;;;;;;1999.90;999.90;;;16.40;99.90;;;;;;5012860;28;20467;-87
2021/09/07 05:26:03;;;;;;;1999.90;999.90;;;16.50;99.90;;;;;;5012531;28;20284;-87
2021/09/07 05:28:29;;;;;;;1999.90;999.90;;;16.50;99.90;;;;;;5013802;28;20417;-87
2021/09/07 05:30:54;;;;;;;1999.90;999.90;;;16.50;99.90;;;;;;5012521;28;20491;-87
2021/09/07 05:33:22;;;;;;;1999.90;999.90;;;16.60;99.90;;;;;;5013647;28;20537;-87
2021/09/07 05:35:48;;;;;;;1999.90;999.90;;;16.60;99.90;;;;;;5012072;28;20644;-88
2021/09/07 05:38:13;;;;;;;1999.90;999.90;;;16.60;99.90;;;;;;5013816;28;20481;-88
2021/09/07 05:40:40;;;;;;;1999.90;999.90;;;16.50;99.90;;;;;;5013540;28;20692;-87
2021/09/07 05:43:05;;;;;;;1999.90;999.90;;;16.50;99.90;;;;;;5013435;28;20934;-87
2021/09/07 05:45:31;;;;;;;1999.90;999.90;;;16.50;99.90;;;;;;5013496;28;20405;-87
2021/09/07 05:47:57;;;;;;;1999.90;999.90;;;16.50;99.90;;;;;;5013475;28;20178;-87
2021/09/07 05:50:22;;;;;;;1999.90;999.90;;;16.50;99.90;;;;;;5013517;28;20180;-87
2021/09/07 05:52:48;;;;;;;1999.90;999.90;;;16.50;99.90;;;;;;5013676;28;20577;-87
2021/09/07 05:55:16;;;;;;;1999.90;999.90;;;16.50;99.90;;;;;;5013762;28;20630;-86
2021/09/07 05:57:42;;;;;;;1999.90;999.90;;;16.50;99.90;;;;;;5013663;28;20273;-86
2021/09/07 06:00:10;;;;;;;1999.90;999.90;;;16.60;99.90;;;;;;5013677;28;20413;-86
2021/09/07 06:02:36;;;;;;;1999.90;999.90;;;16.70;99.90;;;;;;5012496;28;20460;-86
2021/09/07 06:05:02;;;;;;;1999.90;999.90;;;16.80;99.90;;;;;;5014312;28;20437;-86
2021/09/07 06:07:28;;;;;;;1999.90;999.90;;;16.80;99.90;;;;;;5013857;28;20428;-86
2021/09/07 06:09:53;;;;;;;1999.90;999.90;;;16.90;99.90;;;;;;5013571;28;20486;-86
2021/09/07 06:12:19;;;;;;;1999.90;999.90;;;16.90;99.90;;;;;;5013449;28;20207;-86
2021/09/07 06:14:45;;;;;;;1999.90;999.90;;;17.00;99.90;;;;;;5015945;28;20170;-86
2021/09/07 06:17:10;;;;;;;1999.90;999.90;;;17.00;99.90;;;;;;5015983;28;20190;-86
2021/09/07 06:19:36;;;;;;;1999.90;999.90;;;17.00;99.90;;;;;;5017484;28;20154;-86
2021/09/07 06:22:03;;;;;;;1999.90;999.90;;;17.00;99.90;;;;;;5015758;28;20191;-86
2021/09/07 06:24:29;;;;;;;1999.90;999.90;;;17.00;99.90;;;;;;5017109;28;20280;-86
2021/09/07 06:26:54;;;;;;;1999.90;999.90;;;16.80;99.90;;;;;;5017324;28;20445;-87
2021/09/07 06:29:20;;;;;;;1999.90;999.90;;;16.80;99.90;;;;;;5017859;28;20197;-87
2021/09/07 06:31:46;;;;;;;1999.90;999.90;;;16.90;99.90;;;;;;5016031;28;20198;-87
2021/09/07 06:34:11;;;;;;;1999.90;999.90;;;17.00;99.90;;;;;;5016932;28;20640;-87
2021/09/07 06:36:37;;;;;;;1999.90;999.90;;;17.00;99.90;;;;;;5017114;28;20704;-86
2021/09/07 06:39:03;;;;;;;1999.90;999.90;;;17.10;99.90;;;;;;5017261;28;20510;-87
2021/09/07 06:41:29;;;;;;;1999.90;999.90;;;17.10;99.90;;;;;;5018006;28;20638;-87
2021/09/07 06:43:54;;;;;;;1999.90;999.90;;;17.30;99.90;;;;;;5016543;28;20455;-87
2021/09/07 06:46:20;;;;;;;1999.90;999.90;;;17.30;99.90;;;;;;5018337;28;20209;-87
2021/09/07 06:48:46;;;;;;;1999.90;999.90;;;17.30;99.90;;;;;;5018183;28;20591;-87
2021/09/07 06:51:12;;;;;;;1999.90;999.90;;;17.20;99.90;;;;;;5017317;28;20205;-87
2021/09/07 06:53:37;;;;;;;1999.90;999.90;;;17.30;99.90;;;;;;5020594;28;20576;-87
2021/09/07 06:56:03;;;;;;;1999.90;999.90;;;17.30;99.90;;;;;;5019931;28;20190;-87
2021/09/07 06:58:29;;;;;;;1999.90;999.90;;;17.40;99.90;;;;;;5020086;28;20167;-87
2021/09/07 07:00:55;;;;;;;1999.90;999.90;;;17.30;99.90;;;;;;5017602;28;20815;-88
2021/09/07 07:03:20;;;;;;;1999.90;999.90;;;17.30;99.90;;;;;;5016095;28;20641;-88
2021/09/07 07:05:46;;;;;;;1999.90;999.90;;;17.40;99.90;;;;;;5015967;28;20216;-88
2021/09/07 07:08:12;;;;;;;1999.90;999.90;;;17.40;99.90;;;;;;5017861;28;20231;-88
2021/09/07 07:10:38;;;;;;;1999.90;999.90;;;17.40;99.90;;;;;;5018595;28;20269;-88
2021/09/07 07:13:03;;;;;;;1999.90;999.90;;;17.50;99.90;;;;;;5018056;28;20433;-88
2021/09/07 07:15:29;;;;;;;1999.90;999.90;;;17.50;99.90;;;;;;5015831;28;20154;-88
2021/09/07 07:17:55;;;;;;;1999.90;999.90;;;17.50;99.90;;;;;;5017047;28;20186;-87
2021/09/07 07:20:21;;;;;;;1999.90;999.90;;;17.60;99.90;;;;;;5016291;28;20253;-87
2021/09/07 07:22:47;;;;;;;1999.90;999.90;;;17.70;99.90;;;;;;5016585;28;20413;-87
2021/09/07 07:25:12;;;;;;;1999.90;999.90;;;17.70;99.90;;;;;;5017213;28;20401;-88
2021/09/07 07:27:42;;;;;;;1999.90;999.90;;;17.80;99.90;;;;;;5017721;28;20182;-88
2021/09/07 07:30:09;;;;;;;1999.90;999.90;;;17.80;99.90;;;;;;5017497;28;20696;-88
2021/09/07 07:32:35;;;;;;;1999.90;999.90;;;17.90;99.90;;;;;;5018086;28;20457;-87
2021/09/07 07:35:02;;;;;;;1999.90;999.90;;;18.00;99.90;;;;;;5017438;28;20421;-87
2021/09/07 07:37:27;;;;;;;1999.90;999.90;;;18.00;99.90;;;;;;5018192;28;20932;-88
2021/09/07 07:39:53;;;;;;;1999.90;999.90;;;18.10;99.90;;;;;;5015855;28;20443;-87
2021/09/07 07:42:19;;;;;;;1999.90;999.90;;;18.10;99.90;;;;;;5017726;28;20166;-88
2021/09/07 07:44:47;;;;;;;1999.90;999.90;;;18.10;99.90;;;;;;5016007;28;20241;-88
2021/09/07 07:47:13;;;;;;;1999.90;999.90;;;18.10;99.90;;;;;;5017207;28;20564;-88
2021/09/07 07:49:38;;;;;;;1999.90;999.90;;;18.10;99.90;;;;;;5020005;28;20413;-87
2021/09/07 07:52:04;;;;;;;1999.90;999.90;;;18.20;99.90;;;;;;5018169;28;20204;-88
2021/09/07 07:54:30;;;;;;;1999.90;999.90;;;18.10;99.90;;;;;;5026480;28;20170;-87
2021/09/07 07:56:56;;;;;;;1999.90;999.90;;;18.20;99.90;;;;;;5025242;28;20425;-87
2021/09/07 07:59:22;;;;;;;1999.90;999.90;;;18.30;99.90;;;;;;5021427;28;20182;-88
2021/09/07 08:01:47;;;;;;;1999.90;999.90;;;18.20;99.90;;;;;;5021280;28;20265;-86
2021/09/07 08:04:14;;;;;;;1999.90;999.90;;;18.30;99.90;;;;;;5030865;28;20178;-87
2021/09/07 08:06:40;;;;;;;1999.90;999.90;;;18.40;99.90;;;;;;5033367;28;20190;-87
2021/09/07 08:09:06;;;;;;;1999.90;999.90;;;18.40;99.90;;;;;;5033813;28;20421;-87
2021/09/07 08:11:32;;;;;;;1999.90;999.90;;;18.40;99.90;;;;;;5023512;28;20463;-88
2021/09/07 08:13:58;;;;;;;1999.90;999.90;;;18.50;99.90;;;;;;5024234;28;20400;-87
2021/09/07 08:16:24;;;;;;;1999.90;999.90;;;18.70;99.90;;;;;;5022504;28;20417;-88
2021/09/07 08:18:50;;;;;;;1999.90;999.90;;;18.80;99.90;;;;;;5021637;28;20419;-87
2021/09/07 08:21:15;;;;;;;1999.90;999.90;;;18.90;99.90;;;;;;5020002;28;20181;-87
2021/09/07 08:23:41;;;;;;;1999.90;999.90;;;19.00;99.90;;;;;;5021346;28;20162;-88
2021/09/07 08:26:07;;;;;;;1999.90;999.90;;;19.00;99.90;;;;;;5021796;28;20213;-88
2021/09/07 08:28:33;;;;;;;1999.90;999.90;;;19.10;99.90;;;;;;5030172;28;20232;-88
2021/09/07 08:30:58;;;;;;;1999.90;999.90;;;19.00;99.90;;;;;;5033235;28;20193;-87
2021/09/07 08:33:24;;;;;;;1999.90;999.90;;;19.00;99.90;;;;;;5034479;28;20185;-87
2021/09/07 08:35:50;;;;;;;1999.90;999.90;;;19.10;99.90;;;;;;5031180;28;20205;-88
2021/09/07 08:38:16;;;;;;;1999.90;999.90;;;19.30;99.90;;;;;;5032588;28;20166;-87
2021/09/07 08:40:42;;;;;;;1999.90;999.90;;;19.50;99.90;;;;;;5031959;28;20393;-87
2021/09/07 08:43:08;;;;;;;1999.90;999.90;;;19.30;99.90;;;;;;5031458;28;20409;-87
2021/09/07 08:45:34;;;;;;;1999.90;999.90;;;19.10;99.90;;;;;;5030344;28;20440;-87
2021/09/07 08:48:02;;;;;;;1999.90;999.90;;;19.30;99.90;;;;;;5032195;28;20430;-87
2021/09/07 08:50:28;;;;;;;1999.90;999.90;;;19.60;99.90;;;;;;5031425;28;20414;-87
2021/09/07 08:52:56;;;;;;;1999.90;999.90;;;19.70;99.90;;;;;;5027330;28;20413;-87
2021/09/07 08:55:22;;;;;;;1999.90;999.90;;;19.70;99.90;;;;;;5029973;28;20406;-87
2021/09/07 08:57:48;;;;;;;1999.90;999.90;;;19.80;99.90;;;;;;5023637;28;20452;-87
2021/09/07 09:00:22;;;;;;;1999.90;999.90;;;19.60;99.90;;;;;;5015854;28;20424;-86
2021/09/07 09:02:48;;;;;;;1999.90;999.90;;;19.50;99.90;;;;;;5015696;28;20392;-86
2021/09/07 09:05:22;;;;;;;1999.90;999.90;;;19.80;99.90;;;;;;5022330;28;20834;-86
2021/09/07 09:07:48;;;;;;;1999.90;999.90;;;19.90;99.90;;;;;;5014074;28;20183;-86
2021/09/07 09:10:21;;;;;;;1999.90;999.90;;;20.10;99.90;;;;;;5015781;28;20406;-86
2021/09/07 09:12:47;;;;;;;1999.90;999.90;;;20.30;99.90;;;;;;5015216;28;20582;-86
2021/09/07 09:15:21;;;;;;;1999.90;999.90;;;20.30;99.90;;;;;;5014530;28;20405;-86
2021/09/07 09:17:47;;;;;;;1999.90;999.90;;;20.10;99.90;;;;;;5013633;28;20539;-86
2021/09/07 09:20:18;;;;;;;1999.90;999.90;;;20.10;99.90;;;;;;5013714;28;20492;-87
2021/09/07 09:22:47;;;;;;;1999.90;999.90;;;20.20;99.90;;;;;;5021499;28;20404;-87
2021/09/07 09:25:26;;;;;;;1999.90;999.90;;;20.40;99.90;;;;;;5023438;28;20389;-88
2021/09/07 09:27:54;;;;;;;1999.90;999.90;;;20.40;99.90;;;;;;5023251;28;20427;-88
2021/09/07 09:30:32;;;;;;;1999.90;999.90;;;20.50;99.90;;;;;;5022689;28;20458;-88
2021/09/07 09:33:01;;;;;;;1999.90;999.90;;;20.40;99.90;;;;;;5027788;28;20375;-88
2021/09/07 09:36:02;;;;;;;1999.90;999.90;;;20.50;99.90;;;;;;5121423;22;20499;-88
2021/09/07 09:38:34;;;;;;;1999.90;999.90;;;20.60;99.90;;;;;;4990517;28;20467;-88
2021/09/07 09:41:09;;;;;;;1999.90;999.90;;;20.60;99.90;;;;;;4993521;28;20412;-88
2021/09/07 09:43:43;;;;;;;1999.90;999.90;;;20.60;99.90;;;;;;4994370;28;20875;-88
2021/09/07 09:46:24;;;;;;;1999.90;999.90;;;20.70;99.90;;;;;;5010048;28;20494;-88
2021/09/07 09:49:02;;;;;;;1999.90;999.90;;;20.50;99.90;;;;;;4995928;28;20406;-88
2021/09/07 10:00:46;;;;;;;1999.90;999.90;;;21.10;99.90;;;;;;5183092;22;20985;-88
2021/09/07 10:03:15;;;;;;;1999.90;999.90;;;21.30;99.90;;;;;;5016920;28;20862;-88
2021/09/07 10:05:42;;;;;;;1999.90;999.90;;;21.30;99.90;;;;;;5016291;28;20426;-87
2021/09/07 10:08:10;;;;;;;1999.90;999.90;;;21.30;99.90;;;;;;5017346;28;20411;-88
2021/09/07 10:10:49;;;;;;;1999.90;999.90;;;21.40;99.90;;;;;;5017181;28;20416;-87
2021/09/07 10:13:19;;;;;;;1999.90;999.90;;;21.60;99.90;;;;;;5015943;28;20419;-87
2021/09/07 10:15:54;;;;;;;1999.90;999.90;;;21.50;99.90;;;;;;5016745;28;20405;-85
2021/09/07 10:24:06;;;;;;;1999.90;999.90;;;22.20;99.90;;;;;;4997600;28;20411;-84
2021/09/07 10:29:50;;;;;;;1999.90;999.90;;;22.90;99.90;;;;;;4994391;28;20460;-86
2021/09/07 10:36:54;;;;;;;1999.90;999.90;;;22.80;99.90;;;;;;4970549;28;20522;-86
2021/09/07 10:43:11;;;;;;;1999.90;999.90;;;22.90;95.80;;;;;;4922907;29;20412;-85
2021/09/07 10:48:32;;;;;;;1999.90;999.90;;;22.80;91.40;;;;;;5044419;22;20484;-87
2021/09/07 10:51:03;;;;;;;1999.90;999.90;;;23.00;93.30;;;;;;5015123;28;20514;-87
2021/09/07 10:53:30;;;;;;;1999.90;999.90;;;23.30;96.20;;;;;;5015021;28;20928;-88
2021/09/07 10:56:35;;;;;;;1999.90;999.90;;;23.20;88.80;;;;;;5016185;28;20824;-87
2021/09/07 10:59:01;;;;;;;1999.90;999.90;;;23.30;85.10;;;;;;5015313;28;20413;-87
2021/09/07 11:01:35;;;;;;;1999.90;999.90;;;23.30;70.50;;;;;;5016148;28;20759;-87
2021/09/07 11:04:32;;;;;;;1999.90;999.90;;;23.50;78.40;;;;;;5016354;28;20161;-87
2021/09/07 11:07:39;;;;;;;1999.90;999.90;;;23.70;76.40;;;;;;5014690;28;20520;-87
2021/09/07 11:10:05;;;;;;;1999.90;999.90;;;24.00;60.00;;;;;;5015074;28;20470;-87
2021/09/07 11:12:33;;;;;;;1999.90;999.90;;;24.00;60.70;;;;;;5014692;28;20459;-87
2021/09/07 11:15:09;;;;;;;1999.90;999.90;;;24.20;58.30;;;;;;5015533;28;20725;-87
2021/09/07 11:17:37;;;;;;;1999.90;999.90;;;24.50;61.90;;;;;;5014517;28;20952;-88
2021/09/07 11:20:08;;;;;;;1999.90;999.90;;;24.60;27.20;;;;;;5015759;28;20394;-88
2021/09/07 11:22:35;;;;;;;1999.90;999.90;;;24.60;33.10;;;;;;5015948;28;20555;-88
2021/09/07 11:25:10;;;;;;;1999.90;999.90;;;24.90;18.00;;;;;;5014902;28;20413;-87
2021/09/07 11:28:03;;;;;;;1999.90;999.90;;;24.60;1.00;;;;;;5014682;28;20437;-87
2021/09/07 11:30:36;;;;;;;1999.90;999.90;;;24.80;1.20;;;;;;5013918;28;20497;-87
2021/09/07 11:33:06;;;;;;;1999.90;999.90;;;25.10;3.40;;;;;;5015600;28;20957;-87
2021/09/07 11:35:53;;;;;;;1999.90;999.90;;;24.90;4.00;;;;;;5015515;28;20460;-88
2021/09/07 11:38:24;;;;;;;1999.90;999.90;;;25.00;6.30;;;;;;5015798;28;20483;-87
2021/09/07 11:40:59;;;;;;;1999.90;999.90;;;25.00;3.10;;;;;;5014264;28;20922;-88
2021/09/07 11:43:33;;;;;;;1999.90;999.90;;;24.70;1.00;;;;;;5014444;28;20415;-87
2021/09/07 11:46:11;;;;;;;1999.90;999.90;;;24.70;3.40;;;;;;5015761;28;20788;-87
2021/09/07 11:48:42;;;;;;;1999.90;999.90;;;25.00;4.90;;;;;;5013957;28;20405;-87
2021/09/07 11:51:10;;;;;;;1999.90;999.90;;;25.50;1.70;;;;;;5015485;28;20438;-87
2021/09/07 11:53:36;;;;;;;1999.90;999.90;;;25.70;7.20;;;;;;5015072;28;20400;-87
2021/09/07 11:56:02;;;;;;;1999.90;999.90;;;25.70;10.20;;;;;;5014601;28;20440;-87
2021/09/07 11:58:37;;;;;;;1999.90;999.90;;;25.80;1.00;;;;;;5013699;28;20408;-87
2021/09/07 12:01:12;;;;;;;1999.90;999.90;;;26.00;1.00;;;;;;5015097;28;20960;-87
2021/09/07 12:03:43;;;;;;;1999.90;999.90;;;25.80;1.00;;;;;;5015020;28;20383;-88
2021/09/07 12:06:17;;;;;;;1999.90;999.90;;;25.80;1.00;;;;;;5013540;28;20431;-88
2021/09/07 12:08:45;;;;;;;1999.90;999.90;;;25.40;1.00;;;;;;5013824;28;20808;-88
2021/09/07 12:11:25;;;;;;;1999.90;999.90;;;25.50;1.00;;;;;;5013758;28;20460;-88
2021/09/07 12:14:09;;;;;;;1999.90;999.90;;;25.70;1.00;;;;;;5014335;28;20417;-88
2021/09/07 12:16:37;;;;;;;1999.90;999.90;;;25.80;1.00;;;;;;5013276;28;20428;-87
2021/09/07 12:19:26;;;;;;;1999.90;999.90;;;26.40;1.00;;;;;;5014635;28;20515;-87
2021/09/07 12:22:07;;;;;;;1999.90;999.90;;;26.70;1.00;;;;;;5013541;28;20785;-88
2021/09/07 12:24:33;;;;;;;1999.90;999.90;;;26.70;1.00;;;;;;5013241;28;20499;-88
2021/09/07 12:26:59;;;;;;;1999.90;999.90;;;26.90;1.00;;;;;;5014329;28;20507;-88
2021/09/07 12:29:25;;;;;;;1999.90;999.90;;;27.10;1.00;;;;;;5014620;28;20401;-88
2021/09/07 12:32:02;;;;;;;1999.90;999.90;;;26.90;1.00;;;;;;5014556;28;20813;-88
2021/09/07 12:34:28;;;;;;;1999.90;999.90;;;26.80;1.00;;;;;;5014635;28;20177;-88